Aviation Digital Data Service (ADDS)

Output produced by METARs form (2336 UTC 04 July 2022)
found at http://www.aviationweather.gov/metar/data/
 
Forecast for: LIPQ (RONCHI LEGIONARI, IT)
Text: TAF LIPQ 042300Z 0500/0524 VRB05KT 9999 SCT050
Forecast period: 0000 to 0200 UTC 05 July 2022
Forecast type: FROM: standard forecast or significant change
Winds: variable direction winds at 6 MPH (5 knots; 2.6 m/s)
Visibility: 6 or more miles (10+ km)
Ceiling: at least 12,000 feet AGL
Clouds: scattered clouds at 5000 feet AGL
Weather: no significant weather forecast for this period
Text: TEMPO 0500/0506 3000 TSRA
Forecast period: 0000 to 0600 UTC 05 July 2022
Forecast type: TEMPORARY: The following changes expected for less than half the time period
Visibility: 1.86 miles (2.99 km)
Ceiling: unknown
Clouds: missing
Weather: TSRA  (rain associated with thunderstorm(s))
Text: BECMG 0502/0504 02010KT
Forecast period: 0200 UTC 05 July 2022 to 0000 UTC 06 July 2022
Forecast type: BECOMING: Conditions expected to become as follows by 0400 UTC 05 July 2022
Winds: from the NNE (20 degrees) at 12 MPH (10 knots; 5.1 m/s)
Visibility: 6 or more miles (10+ km)
Ceiling: at least 12,000 feet AGL
Clouds: scattered clouds at 5000 feet AGL
Weather: no significant weather forecast for this period